Amherst, Maine
Current Conditions -  °F | °C
As of 6:15 AM on Sunday 23 Nov 2014 (Local Time) from KBHB Reporting Station
Overcast Overcast  
Wind Chill:   Ceiling: 3900
Heat Index:   Visibility: 10mi
Dew Point: -1°   Wind: 5mph
Humidity: 65%   Direction: 210°SSW
Pressure: 29.98"   Gusts: NA
Location:  44.6651°N, 68.3944°W
Report Text: KBHB 231115Z AUTO 21004KT 10SM OVC039 05/M01 A2998 RMK AO1
Loading
Personal Weather Stations






























Interactive Weather Map New forecast layout! Learn more

10-Day Weather Forecast

Advertisements
Track Severe Weather on mobile